createdAt,value
2016-02-23T08:17:43.986Z,100277
2016-02-23T08:17:56.614Z,100286
2016-02-23T08:18:09.318Z,100274
2016-02-23T08:18:21.771Z,100286
2016-02-23T08:18:34.396Z,100283
2016-02-23T08:18:47.117Z,100273
2016-02-23T08:18:59.477Z,100270
2016-02-23T08:19:11.992Z,100288
2016-02-23T08:19:24.571Z,100264
2016-02-23T08:19:36.961Z,100279
2016-02-23T08:19:49.323Z,100270
2016-02-23T08:20:01.994Z,100272
2016-02-23T08:20:14.416Z,100285
2016-02-23T08:20:27.057Z,100275
2016-02-23T08:20:39.541Z,100266
2016-02-23T08:20:51.966Z,100287
2016-02-23T08:21:04.544Z,100284
2016-02-23T08:21:17.013Z,100278
2016-02-23T08:21:29.388Z,100281
2016-02-23T08:21:41.966Z,100269
2016-02-23T08:21:54.485Z,100278
2016-02-23T08:22:06.891Z,100284
2016-02-23T08:22:19.454Z,100260
2016-02-23T08:22:31.954Z,100278
2016-02-23T08:22:44.266Z,100281
2016-02-23T08:22:57.252Z,100272
2016-02-23T08:23:09.815Z,100281
2016-02-23T08:23:22.159Z,100275
2016-02-23T08:23:34.627Z,100275
2016-02-23T08:23:47.240Z,100278
2016-02-23T08:23:59.693Z,100272
2016-02-23T08:24:12.162Z,100275
2016-02-23T08:24:25.209Z,100266
2016-02-23T08:24:37.615Z,100275
2016-02-23T08:24:50.040Z,100272
2016-02-23T08:25:02.649Z,100275
2016-02-23T08:25:15.118Z,100269
2016-02-23T08:25:27.477Z,100269
2016-02-23T08:25:40.055Z,100281
2016-02-23T08:25:52.573Z,100272
2016-02-23T08:26:05.292Z,100269
2016-02-23T08:26:17.698Z,100272
2016-02-23T08:26:30.104Z,100276
2016-02-23T08:26:42.682Z,100276
2016-02-23T08:26:55.701Z,100270
2016-02-23T08:27:08.060Z,100267
2016-02-23T08:27:20.795Z,100270
2016-02-23T08:27:33.279Z,100270
2016-02-23T08:27:45.656Z,100267
2016-02-23T08:27:58.437Z,100270
2016-02-23T08:28:11.031Z,100264
2016-02-23T08:28:26.562Z,100267
2016-02-23T08:28:39.047Z,100276
2016-02-23T08:28:51.785Z,100273
2016-02-23T08:29:04.457Z,100279
2016-02-23T08:29:16.988Z,100273
2016-02-23T08:29:29.332Z,100279
2016-02-23T08:29:41.910Z,100264
2016-02-23T08:29:54.537Z,100276
2016-02-23T08:30:06.943Z,100264
2016-02-23T08:30:19.443Z,100267
2016-02-23T08:30:32.100Z,100264
2016-02-23T08:30:44.459Z,100276
2016-02-23T08:30:56.946Z,100270
2016-02-23T08:31:09.415Z,100285
2016-02-23T08:31:22.040Z,100270
2016-02-23T08:31:34.665Z,100270
2016-02-23T08:31:47.026Z,100285
2016-02-23T08:31:59.573Z,100270
2016-02-23T08:32:12.136Z,100279
2016-02-23T08:32:24.495Z,100267
2016-02-23T08:32:36.964Z,100282
2016-02-23T08:32:49.593Z,100270
2016-02-23T08:33:01.999Z,100273
2016-02-23T08:33:14.468Z,100270
2016-02-23T08:33:27.859Z,100261
2016-02-23T08:33:40.374Z,100273
2016-02-23T08:33:52.720Z,100270
2016-02-23T08:34:05.329Z,100267
2016-02-23T08:34:17.829Z,100267
2016-02-23T08:48:21.102Z,100288
2016-02-23T08:48:33.555Z,100291
2016-02-23T08:48:46.242Z,100277
2016-02-23T08:48:58.635Z,100291
2016-02-23T08:49:11.057Z,100277
2016-02-23T08:49:23.682Z,100280
2016-02-23T08:49:36.229Z,100283
2016-02-23T08:49:48.810Z,100286
2016-02-23T08:50:01.154Z,100283
2016-02-23T08:50:13.841Z,100288
2016-02-23T08:50:26.450Z,100280
2016-02-23T08:50:38.841Z,100280
2016-02-23T08:50:51.312Z,100274
2016-02-23T08:51:03.921Z,100288
2016-02-23T08:51:16.390Z,100274
2016-02-23T08:51:28.749Z,100280
2016-02-23T08:51:41.484Z,100288
2016-02-23T08:51:54.018Z,100274
2016-02-23T08:52:06.487Z,100291
2016-02-23T08:52:19.018Z,100274
2016-02-23T08:52:31.440Z,100268
2016-02-23T08:52:44.112Z,100283
2016-02-23T08:52:56.568Z,100280
2016-02-23T08:53:08.990Z,100274
2016-02-23T08:53:22.318Z,100280
2016-02-23T08:53:35.537Z,100277
2016-02-23T08:53:47.896Z,100283
2016-02-23T08:54:00.461Z,100283
2016-02-23T08:54:13.055Z,100288
2016-02-23T08:54:25.446Z,100280
2016-02-23T08:54:37.977Z,100280
2016-02-23T08:54:50.588Z,100274
2016-02-23T08:55:02.995Z,100286
2016-02-23T08:55:15.526Z,100280
2016-02-23T08:55:27.885Z,100294
2016-02-23T08:55:40.448Z,100277
2016-02-23T08:55:53.029Z,100280
2016-02-23T08:56:05.404Z,100286
2016-02-23T08:56:17.935Z,100280
2016-02-23T08:56:30.576Z,100286
2016-02-23T08:56:42.935Z,100280
2016-02-23T08:56:55.376Z,100286
2016-02-23T08:57:08.094Z,100283
2016-02-23T08:57:20.501Z,100280
2016-02-23T08:57:32.923Z,100280
2016-02-23T08:57:45.516Z,100291
2016-02-23T08:57:58.018Z,100291
2016-02-23T08:58:10.628Z,100280
2016-02-23T08:58:22.987Z,100274
2016-02-23T08:58:35.503Z,100280
2016-02-23T08:58:48.128Z,100291
2016-02-23T08:59:00.584Z,100268
2016-02-23T08:59:13.021Z,100286
2016-02-23T08:59:26.381Z,100274
2016-02-23T08:59:39.240Z,100283
2016-02-23T08:59:52.196Z,100291
2016-02-23T09:00:04.837Z,100286
2016-02-23T09:00:17.321Z,100286
2016-02-23T09:00:29.837Z,100277
2016-02-23T09:00:42.306Z,100277
2016-02-23T09:00:54.729Z,100288
2016-02-23T09:01:07.344Z,100286
2016-02-23T09:01:19.828Z,100288
2016-02-23T09:01:32.187Z,100286
2016-02-23T09:01:44.812Z,100288
2016-02-23T09:01:57.315Z,100283
2016-02-23T09:02:09.690Z,100286
2016-02-23T09:02:22.315Z,100277
2016-02-23T09:02:34.878Z,100286
2016-02-23T09:02:47.331Z,100268
2016-02-23T09:02:59.865Z,100288
2016-02-23T09:03:12.287Z,100265
2016-02-23T09:03:24.897Z,100283
2016-02-23T09:03:37.553Z,100280
2016-02-23T09:03:49.993Z,100283
2016-02-23T09:04:02.493Z,100277
2016-02-23T09:04:15.040Z,100280
2016-02-23T09:04:27.368Z,100274
2016-02-23T09:04:39.993Z,100274
2016-02-23T09:04:52.652Z,100286
2016-02-23T09:05:05.078Z,100280
2016-02-23T09:19:16.163Z,100283
2016-02-23T09:19:28.523Z,100289
2016-02-23T09:19:40.991Z,100295
2016-02-23T09:19:53.601Z,100283
2016-02-23T09:20:06.072Z,100292
2016-02-23T09:20:18.479Z,100289
2016-02-23T09:20:31.088Z,100289
2016-02-23T09:20:43.619Z,100292
2016-02-23T09:20:55.947Z,100280
2016-02-23T09:21:08.560Z,100286
2016-02-23T09:21:21.075Z,100277
2016-02-23T09:21:33.450Z,100295
2016-02-23T09:21:46.138Z,100289
2016-02-23T09:21:58.700Z,100283
2016-02-23T09:22:11.077Z,100289
2016-02-23T09:22:23.609Z,100289
2016-02-23T09:22:36.296Z,100289
2016-02-23T09:22:48.624Z,100289
2016-02-23T09:23:01.080Z,100277
2016-02-23T09:23:13.768Z,100292
2016-02-23T09:23:26.174Z,100298
2016-02-23T09:23:38.659Z,100292
2016-02-23T09:23:51.284Z,100287
2016-02-23T09:24:03.740Z,100277
2016-02-23T09:24:16.115Z,100289
2016-02-23T09:24:28.708Z,100292
2016-02-23T09:24:41.302Z,100289
2016-02-23T09:24:53.912Z,100289
2016-02-23T09:25:06.336Z,100289
2016-02-23T09:25:18.774Z,100283
2016-02-23T09:25:31.383Z,100283
2016-02-23T09:25:43.868Z,100295
2016-02-23T09:25:56.211Z,100280
2016-02-23T09:26:08.885Z,100287
2016-02-23T09:26:21.385Z,100283
2016-02-23T09:26:33.713Z,100289
2016-02-23T09:26:46.307Z,100295
2016-02-23T09:26:58.854Z,100289
2016-02-23T09:27:11.357Z,100283
2016-02-23T09:27:23.826Z,100292
2016-02-23T09:27:36.232Z,100283
2016-02-23T09:27:48.920Z,100289
2016-02-23T09:28:01.432Z,100298
2016-02-23T09:28:13.760Z,100280
2016-02-23T09:28:26.354Z,100283
2016-02-23T09:28:38.917Z,100280
2016-02-23T09:28:51.307Z,100289
2016-02-23T09:29:03.828Z,100283
2016-02-23T09:29:16.485Z,100289
2016-02-23T09:29:28.891Z,100289
2016-02-23T09:29:41.360Z,100280
2016-02-23T09:29:53.828Z,100295
2016-02-23T09:30:06.412Z,100295
2016-02-23T09:30:19.022Z,100287
2016-02-23T09:30:31.412Z,100298
2016-02-23T09:30:43.943Z,100287
2016-02-23T09:30:56.568Z,100280
2016-02-23T09:31:08.933Z,100289
2016-02-23T09:31:21.418Z,100271
2016-02-23T09:31:34.058Z,100287
2016-02-23T09:31:46.512Z,100298
2016-02-23T09:31:58.933Z,100292
2016-02-23T09:32:11.470Z,100292
2016-02-23T09:32:23.939Z,100292
2016-02-23T09:32:36.502Z,100298
2016-02-23T09:32:48.939Z,100298
2016-02-23T09:33:01.371Z,100289
2016-02-23T09:33:14.058Z,100301
2016-02-23T09:33:26.449Z,100287
2016-02-23T09:33:38.964Z,100289
2016-02-23T09:33:51.636Z,100298
2016-02-23T09:34:04.119Z,100289
2016-02-23T09:34:16.509Z,100284
2016-02-23T09:34:29.119Z,100292
2016-02-23T09:34:41.619Z,100292
2016-02-23T09:34:53.962Z,100287
2016-02-23T09:35:06.523Z,100298
2016-02-23T09:35:18.960Z,100287
2016-02-23T09:35:31.601Z,100289
2016-02-23T09:35:44.101Z,100292
2016-02-23T09:49:55.834Z,100301
2016-02-23T09:50:08.367Z,100307
2016-02-23T09:50:20.961Z,100295
2016-02-23T09:50:33.336Z,100295
2016-02-23T09:50:45.804Z,100317
2016-02-23T09:50:58.508Z,100292
2016-02-23T09:51:10.947Z,100304
2016-02-23T09:51:23.525Z,100311
2016-02-23T09:51:35.916Z,100307
2016-02-23T09:51:48.431Z,100304
2016-02-23T09:52:01.056Z,100301
2016-02-23T09:52:13.513Z,100298
2016-02-23T09:52:25.981Z,100298
2016-02-23T09:52:38.622Z,100298
2016-02-23T09:52:51.044Z,100311
2016-02-23T09:53:03.436Z,100314
2016-02-23T09:53:16.077Z,100304
2016-02-23T09:53:28.577Z,100301
2016-02-23T09:53:40.952Z,100304
2016-02-23T09:53:53.515Z,100320
2016-02-23T09:54:05.971Z,100311
2016-02-23T09:54:18.564Z,100295
2016-02-23T09:54:31.018Z,100311
2016-02-23T09:54:43.455Z,100314
2016-02-23T09:54:56.143Z,100314
2016-02-23T09:55:08.614Z,100304
2016-02-23T09:55:20.974Z,100307
2016-02-23T09:55:33.614Z,100301
2016-02-23T09:55:46.130Z,100298
2016-02-23T09:55:58.489Z,100301
2016-02-23T09:56:11.054Z,100317
2016-02-23T09:56:23.632Z,100298
2016-02-23T09:56:35.991Z,100311
2016-02-23T09:56:48.507Z,100298
2016-02-23T09:57:01.116Z,100298
2016-02-23T09:57:13.479Z,100304
2016-02-23T09:57:25.932Z,100317
2016-02-23T09:57:38.588Z,100323
2016-02-23T09:57:51.072Z,100308
2016-02-23T09:58:03.529Z,100311
2016-02-23T09:58:16.154Z,100308
2016-02-23T09:58:29.232Z,100304
2016-02-23T09:58:42.216Z,100298
2016-02-23T09:58:54.888Z,100314
2016-02-23T09:59:07.390Z,100304
2016-02-23T09:59:19.921Z,100292
2016-02-23T09:59:32.327Z,100295
2016-02-23T09:59:44.827Z,100304
2016-02-23T09:59:57.437Z,100304
2016-02-23T10:00:09.924Z,100301
2016-02-23T10:00:22.299Z,100295
2016-02-23T10:00:34.955Z,100292
2016-02-23T10:00:47.455Z,100295
2016-02-23T10:00:59.862Z,100292
2016-02-23T10:01:12.458Z,100311
2016-02-23T10:01:27.552Z,100311
2016-02-23T10:01:39.912Z,100304
2016-02-23T10:01:52.412Z,100298
2016-02-23T10:02:04.805Z,100292
2016-02-23T10:02:17.446Z,100304
2016-02-23T10:02:29.977Z,100304
2016-02-23T10:02:42.336Z,100301
2016-02-23T10:02:55.868Z,100301
2016-02-23T10:03:08.479Z,100298
2016-02-23T10:03:22.135Z,100295
2016-02-23T10:03:34.682Z,100292
2016-02-23T10:03:48.213Z,100301
2016-02-23T10:04:00.667Z,100301
2016-02-23T10:04:13.123Z,100311
2016-02-23T10:04:25.779Z,100314
2016-02-23T10:04:38.216Z,100301
2016-02-23T10:04:50.795Z,100301
2016-02-23T10:05:03.482Z,100308
2016-02-23T10:05:16.001Z,100298
2016-02-23T10:05:28.719Z,100292
2016-02-23T10:05:41.126Z,100305
2016-02-23T10:05:53.610Z,100308
2016-02-23T10:06:06.237Z,100314
2016-02-23T10:06:18.659Z,100308
2016-02-23T10:06:31.143Z,100305
2016-02-23T10:20:36.275Z,100301
2016-02-23T10:20:48.697Z,100292
2016-02-23T10:21:01.338Z,100287
2016-02-23T10:21:13.793Z,100295
2016-02-23T10:21:26.199Z,100314
2016-02-23T10:21:38.886Z,100305
2016-02-23T10:21:51.402Z,100295
2016-02-23T10:22:03.761Z,100289
2016-02-23T10:22:16.375Z,100289
2016-02-23T10:22:28.984Z,100295
2016-02-23T10:22:41.328Z,100308
2016-02-23T10:22:53.890Z,100299
2016-02-23T10:23:06.517Z,100305
2016-02-23T10:23:18.924Z,100292
2016-02-23T10:23:32.877Z,100299
2016-02-23T10:23:45.221Z,100292
2016-02-23T10:23:57.767Z,100295
2016-02-23T10:24:10.411Z,100302
2016-02-23T10:24:22.770Z,100302
2016-02-23T10:24:35.364Z,100292
2016-02-23T10:24:48.005Z,100295
2016-02-23T10:25:00.317Z,100292
2016-02-23T10:25:12.788Z,100289
2016-02-23T10:25:25.476Z,100295
2016-02-23T10:25:37.991Z,100284
2016-02-23T10:25:50.382Z,100292
2016-02-23T10:26:02.897Z,100292
2016-02-23T10:26:15.416Z,100299
2016-02-23T10:26:28.072Z,100299
2016-02-23T10:26:40.479Z,100299
2016-02-23T10:26:53.635Z,100299
2016-02-23T10:27:06.935Z,100292
2016-02-23T10:27:19.341Z,100305
2016-02-23T10:27:31.763Z,100289
2016-02-23T10:27:44.388Z,100305
2016-02-23T10:27:56.935Z,100296
2016-02-23T10:28:09.265Z,100305
2016-02-23T10:28:21.905Z,100302
2016-02-23T10:28:34.421Z,100299
2016-02-23T10:28:47.546Z,100296
2016-02-23T10:28:59.937Z,100284
2016-02-23T10:29:12.362Z,100289
2016-02-23T10:29:25.049Z,100289
2016-02-23T10:29:37.549Z,100296
2016-02-23T10:29:49.862Z,100302
2016-02-23T10:30:02.455Z,100289
2016-02-23T10:30:15.052Z,100284
2016-02-23T10:30:27.521Z,100289
2016-02-23T10:30:40.099Z,100299
2016-02-23T10:30:52.708Z,100292
2016-02-23T10:31:05.099Z,100289
2016-02-23T10:31:17.679Z,100302
2016-02-23T10:31:30.304Z,100289
2016-02-23T10:31:42.648Z,100296
2016-02-23T10:31:55.726Z,100284
2016-02-23T10:32:08.448Z,100292
2016-02-23T10:32:20.870Z,100299
2016-02-23T10:32:33.291Z,100296
2016-02-23T10:32:46.307Z,100292
2016-02-23T10:32:58.791Z,100311
2016-02-23T10:33:11.248Z,100296
2016-02-23T10:33:23.857Z,100302
2016-02-23T10:33:36.419Z,100296
2016-02-23T10:33:50.029Z,100299
2016-02-23T10:34:02.654Z,100296
2016-02-23T10:34:15.079Z,100302
2016-02-23T10:34:27.704Z,100289
2016-02-23T10:34:40.157Z,100292
2016-02-23T10:34:52.938Z,100299
2016-02-23T10:35:05.563Z,100287
2016-02-23T10:35:18.112Z,100296
2016-02-23T10:35:31.128Z,100287
2016-02-23T10:35:43.674Z,100284
2016-02-23T10:35:56.299Z,100302
2016-02-23T10:36:08.628Z,100287
2016-02-23T10:36:21.224Z,100289
2016-02-23T10:36:33.927Z,100287
2016-02-23T10:36:46.334Z,100284
2016-02-23T10:36:58.912Z,100305
2016-02-23T10:37:11.274Z,100287
2016-02-23T10:37:23.915Z,100292
2016-02-23T10:51:28.577Z,100299
2016-02-23T10:51:40.967Z,100302
2016-02-23T10:51:53.374Z,100299
2016-02-23T10:52:06.061Z,100302
2016-02-23T10:52:18.627Z,100293
2016-02-23T10:52:30.970Z,100305
2016-02-23T10:52:43.627Z,100296
2016-02-23T10:52:56.064Z,100299
2016-02-23T10:53:08.674Z,100311
2016-02-23T10:53:21.083Z,100293
2016-02-23T10:53:33.989Z,100293
2016-02-23T10:53:46.630Z,100296
2016-02-23T10:53:59.083Z,100293
2016-02-23T10:54:11.442Z,100302
2016-02-23T10:54:24.069Z,100302
2016-02-23T10:54:36.616Z,100293
2016-02-23T10:54:48.991Z,100293
2016-02-23T10:55:01.538Z,100293
2016-02-23T10:55:14.197Z,100299
2016-02-23T10:55:26.635Z,100289
2016-02-23T10:55:39.182Z,100289
2016-02-23T10:55:51.525Z,100287
2016-02-23T10:56:04.150Z,100299
2016-02-23T10:56:16.731Z,100302
2016-02-23T10:56:29.091Z,100302
2016-02-23T10:56:41.685Z,100299
2016-02-23T10:56:54.247Z,100302
2016-02-23T10:57:06.606Z,100290
2016-02-23T10:57:19.125Z,100302
2016-02-23T10:57:31.766Z,100293
2016-02-23T10:57:44.688Z,100287
2016-02-23T10:57:57.141Z,100293
2016-02-23T10:58:09.609Z,100296
2016-02-23T10:58:22.206Z,100293
2016-02-23T10:58:35.394Z,100296
2016-02-23T10:58:47.737Z,100308
2016-02-23T10:59:00.253Z,100299
2016-02-23T10:59:12.849Z,100290
2016-02-23T10:59:25.208Z,100293
2016-02-23T10:59:37.724Z,100293
2016-02-23T10:59:50.380Z,100293
2016-02-23T11:00:02.739Z,100299
2016-02-23T11:00:15.163Z,100302
2016-02-23T11:00:27.773Z,100290
2016-02-23T11:00:41.038Z,100299
2016-02-23T11:00:53.632Z,100302
2016-02-23T11:01:05.960Z,100299
2016-02-23T11:01:18.495Z,100287
2016-02-23T11:01:31.120Z,100293
2016-02-23T11:01:43.542Z,100288
2016-02-23T11:01:55.933Z,100299
2016-02-23T11:02:08.605Z,100288
2016-02-23T11:02:21.060Z,100293
2016-02-23T11:02:33.466Z,100293
2016-02-23T11:02:46.232Z,100290
2016-02-23T11:02:58.747Z,100290
2016-02-23T11:03:11.122Z,100293
2016-02-23T11:03:23.656Z,100293
2016-02-23T11:03:36.140Z,100308
2016-02-23T11:03:48.765Z,100302
2016-02-23T11:04:01.328Z,100296
2016-02-23T11:04:14.409Z,100284
2016-02-23T11:04:27.002Z,100284
2016-02-23T11:04:39.502Z,100299
2016-02-23T11:04:51.862Z,100290
2016-02-23T11:05:04.393Z,100293
2016-02-23T11:05:17.005Z,100284
2016-02-23T11:05:29.380Z,100293
2016-02-23T11:05:41.990Z,100302
2016-02-23T11:05:54.615Z,100290
2016-02-23T11:06:06.959Z,100287
2016-02-23T11:06:19.415Z,100290
2016-02-23T11:06:32.415Z,100278
2016-02-23T11:06:44.899Z,100287
2016-02-23T11:06:57.321Z,100299
2016-02-23T11:07:09.977Z,100284
2016-02-23T11:07:22.418Z,100289
2016-02-23T11:07:34.840Z,100281
2016-02-23T11:07:47.465Z,100287
2016-02-23T11:08:00.058Z,100296
2016-02-23T11:22:16.255Z,100287
2016-02-23T11:22:28.801Z,100284
2016-02-23T11:22:41.192Z,100278
2016-02-23T11:22:53.755Z,100278
2016-02-23T11:23:06.333Z,100281
2016-02-23T11:23:18.694Z,100278
2016-02-23T11:23:31.210Z,100272
2016-02-23T11:23:43.850Z,100284
2016-02-23T11:23:56.178Z,100284
2016-02-23T11:24:08.757Z,100275
2016-02-23T11:24:21.338Z,100284
2016-02-23T11:24:34.931Z,100289
2016-02-23T11:24:47.353Z,100287
2016-02-23T11:24:59.869Z,100289
2016-02-23T11:25:12.385Z,100281
2016-02-23T11:25:24.997Z,100287
2016-02-23T11:25:37.872Z,100281
2016-02-23T11:25:50.356Z,100281
2016-02-23T11:26:02.981Z,100289
2016-02-23T11:26:15.391Z,100272
2016-02-23T11:26:27.875Z,100292
2016-02-23T11:26:41.828Z,100278
2016-02-23T11:26:54.281Z,100287
2016-02-23T11:27:06.625Z,100284
2016-02-23T11:27:19.768Z,100284
2016-02-23T11:27:32.283Z,100289
2016-02-23T11:27:45.518Z,100281
2016-02-23T11:27:58.018Z,100275
2016-02-23T11:28:10.424Z,100278
2016-02-23T11:28:23.114Z,100284
2016-02-23T11:28:35.552Z,100275
2016-02-23T11:28:47.989Z,100266
2016-02-23T11:29:00.599Z,100278
2016-02-23T11:29:13.099Z,100278
2016-02-23T11:29:25.477Z,100278
2016-02-23T11:29:38.039Z,100278
2016-02-23T11:29:50.680Z,100287
2016-02-23T11:30:03.086Z,100284
2016-02-23T11:30:15.604Z,100272
2016-02-23T11:30:28.026Z,100287
2016-02-23T11:30:40.697Z,100278
2016-02-23T11:30:53.619Z,100278
2016-02-23T11:31:05.963Z,100281
2016-02-23T11:31:18.530Z,100284
2016-02-23T11:31:31.170Z,100278
2016-02-23T11:31:43.514Z,100284
2016-02-23T11:31:56.045Z,100284
2016-02-23T11:32:08.670Z,100275
2016-02-23T11:32:21.094Z,100281
2016-02-23T11:32:33.563Z,100284
2016-02-23T11:32:46.219Z,100281
2016-02-23T11:32:58.625Z,100284
2016-02-23T11:33:11.188Z,100278
2016-02-23T11:33:24.238Z,100263
2016-02-23T11:33:36.753Z,100284
2016-02-23T11:33:49.378Z,100275
2016-02-23T11:34:02.550Z,100284
2016-02-23T11:34:14.990Z,100275
2016-02-23T11:34:27.693Z,100278
2016-02-23T11:34:40.083Z,100284
2016-02-23T11:34:52.490Z,100269
2016-02-23T11:35:05.099Z,100275
2016-02-23T11:35:17.586Z,100281
2016-02-23T11:35:30.477Z,100287
2016-02-23T11:35:43.055Z,100275
2016-02-23T11:35:55.540Z,100278
2016-02-23T11:36:08.149Z,100281
2016-02-23T11:36:20.542Z,100278
2016-02-23T11:36:33.557Z,100263
2016-02-23T11:36:46.167Z,100275
2016-02-23T11:36:58.635Z,100281
2016-02-23T11:37:11.010Z,100278
2016-02-23T11:37:23.639Z,100278
2016-02-23T11:37:36.155Z,100275
2016-02-23T11:37:48.561Z,100269
2016-02-23T11:38:01.108Z,100275
2016-02-23T11:38:14.798Z,100281
2016-02-23T11:38:27.298Z,100269
2016-02-23T11:38:39.735Z,100269
2016-02-23T11:38:52.063Z,100278
2016-02-23T11:39:04.751Z,100275
2016-02-23T11:53:13.800Z,100284
2016-02-23T11:53:28.527Z,100281
2016-02-23T11:53:41.636Z,100272
2016-02-23T11:53:54.386Z,100253
2016-02-23T11:54:06.855Z,100269
2016-02-23T11:54:19.483Z,100259
2016-02-23T11:54:32.155Z,100278
2016-02-23T11:54:44.702Z,100275
2016-02-23T11:54:57.202Z,100263
2016-02-23T11:55:09.905Z,100266
2016-02-23T11:55:22.502Z,100269
2016-02-23T11:55:34.878Z,100269
2016-02-23T11:55:48.441Z,100259
2016-02-23T11:56:03.489Z,100272
2016-02-23T11:56:16.440Z,100269
2016-02-23T11:56:34.019Z,100263
2016-02-23T11:56:48.232Z,100266
2016-02-23T11:57:04.185Z,100278
2016-02-23T11:57:16.610Z,100263
2016-02-23T11:57:29.126Z,100269
2016-02-23T11:57:42.392Z,100266
2016-02-23T11:57:55.688Z,100278
2016-02-23T11:58:08.048Z,100256
2016-02-23T11:58:20.566Z,100266
2016-02-23T11:58:33.270Z,100272
2016-02-23T11:58:45.973Z,100259
2016-02-23T11:58:59.082Z,100269
2016-02-23T11:59:11.676Z,100259
2016-02-23T11:59:24.068Z,100263
2016-02-23T11:59:36.553Z,100259
2016-02-23T11:59:51.475Z,100253
2016-02-23T12:00:04.006Z,100260
2016-02-23T12:00:16.603Z,100266
2016-02-23T12:00:29.478Z,100263
2016-02-23T12:00:42.712Z,100263
2016-02-23T12:00:58.056Z,100272
2016-02-23T12:01:10.509Z,100266
2016-02-23T12:01:24.809Z,100272
2016-02-23T12:01:37.418Z,100259
2016-02-23T12:01:49.934Z,100269
2016-02-23T12:02:02.324Z,100259
2016-02-23T12:02:14.934Z,100266
2016-02-23T12:02:27.452Z,100256
2016-02-23T12:02:39.812Z,100259
2016-02-23T12:02:52.374Z,100266
2016-02-23T12:03:04.765Z,100259
2016-02-23T12:03:17.423Z,100259
2016-02-23T12:03:29.892Z,100269
2016-02-23T12:03:42.267Z,100250
2016-02-23T12:03:54.861Z,100275
2016-02-23T12:04:07.361Z,100272
2016-02-23T12:04:19.723Z,100263
2016-02-23T12:04:32.364Z,100269
2016-02-23T12:04:44.942Z,100275
2016-02-23T12:04:58.114Z,100256
2016-02-23T12:05:10.676Z,100266
2016-02-23T12:05:23.914Z,100269
2016-02-23T12:05:36.585Z,100266
2016-02-23T12:05:49.304Z,100266
2016-02-23T12:06:01.887Z,100259
2016-02-23T12:06:14.513Z,100269
2016-02-23T12:06:27.391Z,100259
2016-02-23T12:06:40.825Z,100259
2016-02-23T12:06:53.668Z,100259
2016-02-23T12:07:06.262Z,100266
2016-02-23T12:07:18.624Z,100253
2016-02-23T12:07:31.124Z,100256
2016-02-23T12:07:43.749Z,100259
2016-02-23T12:07:56.155Z,100266
2016-02-23T12:08:09.530Z,100256
2016-02-23T12:08:22.705Z,100263
2016-02-23T12:08:35.314Z,100250
2016-02-23T12:08:47.939Z,100266
2016-02-23T12:09:00.283Z,100259
2016-02-23T12:09:13.642Z,100275
2016-02-23T12:09:26.300Z,100256
2016-02-23T12:09:38.722Z,100266
2016-02-23T12:09:51.160Z,100266
2016-02-23T12:10:03.816Z,100266
2016-02-23T12:10:16.272Z,100256
2016-02-23T12:10:28.757Z,100253
2016-02-23T12:10:41.366Z,100263
2016-02-23T12:10:53.882Z,100250
2016-02-23T12:11:06.913Z,100260
2016-02-23T12:11:19.321Z,100253
2016-02-23T12:23:28.448Z,100259
2016-02-23T12:23:40.932Z,100247
2016-02-23T12:24:48.512Z,100256
2016-02-23T12:25:01.762Z,100260
2016-02-23T12:25:14.231Z,100244
2016-02-23T12:25:26.829Z,100241
2016-02-23T12:25:39.219Z,100247
2016-02-23T12:25:51.751Z,100256
2016-02-23T12:26:04.266Z,100247
2016-02-23T12:26:16.829Z,100250
2016-02-23T12:26:29.488Z,100247
2016-02-23T12:26:41.863Z,100244
2016-02-23T12:26:54.301Z,100247
2016-02-23T12:27:06.910Z,100247
2016-02-23T12:27:19.303Z,100244
2016-02-23T12:27:31.803Z,100259
2016-02-23T12:27:45.068Z,100250
2016-02-23T12:27:57.646Z,100256
2016-02-23T12:28:10.006Z,100247
2016-02-23T12:28:22.743Z,100253
2016-02-23T12:29:26.136Z,100253
2016-02-23T12:29:38.511Z,100247
2016-02-23T12:29:51.151Z,100263
2016-02-23T12:30:03.729Z,100260
2016-02-23T12:30:16.167Z,100256
2016-02-23T12:30:28.764Z,100241
2016-02-23T12:30:41.311Z,100247
2016-02-23T12:30:53.732Z,100247
2016-02-23T12:31:06.232Z,100247
2016-02-23T12:31:18.860Z,100250
2016-02-23T12:31:31.220Z,100247
2016-02-23T12:31:43.657Z,100250
2016-02-23T12:31:56.314Z,100256
2016-02-23T12:32:08.704Z,100247
2016-02-23T12:32:21.254Z,100247
2016-02-23T12:32:33.598Z,100244
2016-02-23T12:32:46.098Z,100250
2016-02-23T12:32:58.738Z,100250
2016-02-23T12:33:11.098Z,100253
2016-02-23T12:33:23.600Z,100238
2016-02-23T12:33:36.225Z,100244
2016-02-23T12:33:48.694Z,100250
2016-02-23T12:34:01.131Z,100253
2016-02-23T12:34:13.772Z,100247
2016-02-23T12:34:26.306Z,100247
2016-02-23T12:34:38.681Z,100244
2016-02-23T12:34:51.243Z,100256
2016-02-23T12:35:03.697Z,100238
2016-02-23T12:35:16.306Z,100238
2016-02-23T12:35:29.277Z,100241
2016-02-23T12:35:41.683Z,100238
2016-02-23T12:35:54.355Z,100247
2016-02-23T12:36:06.824Z,100244
2016-02-23T12:36:19.202Z,100241
2016-02-23T12:36:31.889Z,100241
2016-02-23T12:36:44.389Z,100232
2016-02-23T12:36:56.733Z,100244
2016-02-23T12:37:09.280Z,100241
2016-02-23T12:37:22.000Z,100260
2016-02-23T12:37:34.454Z,100247
2016-02-23T12:37:46.938Z,100238
2016-02-23T12:37:59.375Z,100235
2016-02-23T12:38:12.860Z,100238
2016-02-23T12:38:26.098Z,100238
2016-02-23T12:38:38.489Z,100232
2016-02-23T12:38:51.098Z,100247
2016-02-23T12:39:04.223Z,100232
2016-02-23T12:39:16.583Z,100238
2016-02-23T12:39:29.101Z,100232
2016-02-23T12:39:41.726Z,100238
2016-02-23T12:39:54.101Z,100244
2016-02-23T12:40:06.601Z,100244
2016-02-23T12:40:19.025Z,100235
2016-02-23T12:40:31.603Z,100244
2016-02-23T12:40:44.197Z,100226
2016-02-23T12:40:56.588Z,100235
2016-02-23T12:41:09.088Z,100238
2016-02-23T12:41:21.700Z,100235
2016-02-23T12:41:34.075Z,100222
2016-02-23T12:41:46.559Z,100229
2016-02-23T12:53:56.248Z,100241
2016-02-23T12:54:08.888Z,100247
2016-02-23T12:55:16.219Z,100250
2016-02-23T12:55:28.706Z,100241
2016-02-23T12:55:41.065Z,100232
2016-02-23T12:55:53.690Z,100253
2016-02-23T12:56:06.206Z,100235
2016-02-23T12:56:18.599Z,100244
2016-02-23T12:56:31.146Z,100241
2016-02-23T12:56:43.724Z,100235
2016-02-23T12:56:56.068Z,100250
2016-02-23T12:57:08.552Z,100241
2016-02-23T12:57:21.212Z,100222
2016-02-23T12:57:34.118Z,100241
2016-02-23T12:57:46.649Z,100235
2016-02-23T12:57:59.071Z,100241
2016-02-23T12:58:11.618Z,100241
2016-02-23T12:58:24.182Z,100226
2016-02-23T12:58:37.245Z,100241
2016-02-23T12:58:49.776Z,100226
2016-02-23T12:59:02.464Z,100235